sensor_id;sensor_type;location;lat;lon;timestamp;P1;durP1;ratioP1;P2;durP2;ratioP2
7493;SDS011;3788;49.902;8.590;2023-05-10T00:02:01;0.70;;;0.70;;
7493;SDS011;3788;49.902;8.590;2023-05-10T00:04:27;0.63;;;0.63;;
7493;SDS011;3788;49.902;8.590;2023-05-10T00:06:54;0.70;;;0.70;;
7493;SDS011;3788;49.902;8.590;2023-05-10T00:09:22;0.70;;;0.70;;
7493;SDS011;3788;49.902;8.590;2023-05-10T00:11:49;0.60;;;0.60;;
7493;SDS011;3788;49.902;8.590;2023-05-10T00:14:16;1.17;;;0.70;;
7493;SDS011;3788;49.902;8.590;2023-05-10T00:16:43;0.70;;;0.70;;
7493;SDS011;3788;49.902;8.590;2023-05-10T00:19:09;1.67;;;0.70;;
7493;SDS011;3788;49.902;8.590;2023-05-10T00:21:36;0.73;;;0.60;;
7493;SDS011;3788;49.902;8.590;2023-05-10T00:24:03;0.70;;;0.70;;
7493;SDS011;3788;49.902;8.590;2023-05-10T00:26:32;0.50;;;0.50;;
7493;SDS011;3788;49.902;8.590;2023-05-10T00:28:58;0.77;;;0.60;;
7493;SDS011;3788;49.902;8.590;2023-05-10T00:31:25;0.60;;;0.60;;
7493;SDS011;3788;49.902;8.590;2023-05-10T00:33:52;1.70;;;0.60;;
7493;SDS011;3788;49.902;8.590;2023-05-10T00:36:18;1.63;;;1.10;;
7493;SDS011;3788;49.902;8.590;2023-05-10T00:38:45;1.40;;;0.70;;
7493;SDS011;3788;49.902;8.590;2023-05-10T00:41:14;0.50;;;0.50;;
7493;SDS011;3788;49.902;8.590;2023-05-10T00:43:42;0.73;;;0.60;;
7493;SDS011;3788;49.902;8.590;2023-05-10T00:46:11;0.60;;;0.60;;
7493;SDS011;3788;49.902;8.590;2023-05-10T00:48:39;0.50;;;0.50;;
7493;SDS011;3788;49.902;8.590;2023-05-10T00:51:06;0.60;;;0.60;;
7493;SDS011;3788;49.902;8.590;2023-05-10T00:53:36;0.50;;;0.50;;
7493;SDS011;3788;49.902;8.590;2023-05-10T00:56:03;0.50;;;0.50;;
7493;SDS011;3788;49.902;8.590;2023-05-10T00:58:30;1.10;;;0.60;;
7493;SDS011;3788;49.902;8.590;2023-05-10T01:00:58;1.70;;;0.80;;
7493;SDS011;3788;49.902;8.590;2023-05-10T01:03:27;0.70;;;0.70;;
7493;SDS011;3788;49.902;8.590;2023-05-10T01:05:54;0.60;;;0.60;;
7493;SDS011;3788;49.902;8.590;2023-05-10T01:08:21;0.77;;;0.77;;
7493;SDS011;3788;49.902;8.590;2023-05-10T01:10:48;1.17;;;0.77;;
7493;SDS011;3788;49.902;8.590;2023-05-10T01:13:17;0.57;;;0.57;;
7493;SDS011;3788;49.902;8.590;2023-05-10T01:15:50;0.60;;;0.60;;
7493;SDS011;3788;49.902;8.590;2023-05-10T01:18:19;0.70;;;0.70;;
7493;SDS011;3788;49.902;8.590;2023-05-10T01:20:54;0.77;;;0.70;;
7493;SDS011;3788;49.902;8.590;2023-05-10T01:23:34;0.70;;;0.70;;
7493;SDS011;3788;49.902;8.590;2023-05-10T01:29:24;0.90;;;0.50;;
7493;SDS011;3788;49.902;8.590;2023-05-10T01:32:25;1.53;;;0.67;;
7493;SDS011;3788;49.902;8.590;2023-05-10T01:34:59;0.60;;;0.60;;
7493;SDS011;3788;49.902;8.590;2023-05-10T01:37:31;1.73;;;0.70;;
7493;SDS011;3788;49.902;8.590;2023-05-10T01:40:08;0.77;;;0.77;;
7493;SDS011;3788;49.902;8.590;2023-05-10T01:42:47;0.50;;;0.50;;
7493;SDS011;3788;49.902;8.590;2023-05-10T01:45:19;1.77;;;0.63;;
7493;SDS011;3788;49.902;8.590;2023-05-10T01:47:57;1.20;;;0.67;;
7493;SDS011;3788;49.902;8.590;2023-05-10T01:50:30;0.70;;;0.70;;
7493;SDS011;3788;49.902;8.590;2023-05-10T01:52:59;2.33;;;0.60;;
7493;SDS011;3788;49.902;8.590;2023-05-10T01:55:28;0.60;;;0.60;;
7493;SDS011;3788;49.902;8.590;2023-05-10T01:58:00;0.70;;;0.70;;
7493;SDS011;3788;49.902;8.590;2023-05-10T02:00:30;0.60;;;0.60;;
7493;SDS011;3788;49.902;8.590;2023-05-10T02:02:59;2.13;;;0.70;;
7493;SDS011;3788;49.902;8.590;2023-05-10T02:05:28;0.60;;;0.60;;
7493;SDS011;3788;49.902;8.590;2023-05-10T02:07:58;0.80;;;0.80;;
7493;SDS011;3788;49.902;8.590;2023-05-10T02:10:27;0.80;;;0.80;;
7493;SDS011;3788;49.902;8.590;2023-05-10T02:12:54;0.80;;;0.80;;
7493;SDS011;3788;49.902;8.590;2023-05-10T02:15:24;0.80;;;0.80;;
7493;SDS011;3788;49.902;8.590;2023-05-10T02:17:52;3.03;;;0.80;;
7493;SDS011;3788;49.902;8.590;2023-05-10T02:20:22;1.10;;;1.00;;
7493;SDS011;3788;49.902;8.590;2023-05-10T02:22:51;1.17;;;1.00;;
7493;SDS011;3788;49.902;8.590;2023-05-10T02:25:21;2.13;;;1.00;;
7493;SDS011;3788;49.902;8.590;2023-05-10T02:27:49;0.90;;;0.90;;
7493;SDS011;3788;49.902;8.590;2023-05-10T02:30:17;0.80;;;0.80;;
7493;SDS011;3788;49.902;8.590;2023-05-10T02:32:47;0.80;;;0.80;;
7493;SDS011;3788;49.902;8.590;2023-05-10T02:35:16;0.90;;;0.90;;
7493;SDS011;3788;49.902;8.590;2023-05-10T02:37:45;1.67;;;0.87;;
7493;SDS011;3788;49.902;8.590;2023-05-10T02:40:13;0.73;;;0.73;;
7493;SDS011;3788;49.902;8.590;2023-05-10T02:42:43;0.80;;;0.80;;
7493;SDS011;3788;49.902;8.590;2023-05-10T02:45:12;0.80;;;0.80;;
7493;SDS011;3788;49.902;8.590;2023-05-10T02:47:43;1.43;;;0.77;;
7493;SDS011;3788;49.902;8.590;2023-05-10T02:50:09;0.90;;;0.90;;
7493;SDS011;3788;49.902;8.590;2023-05-10T02:52:38;0.90;;;0.90;;
7493;SDS011;3788;49.902;8.590;2023-05-10T02:55:09;1.00;;;0.97;;
7493;SDS011;3788;49.902;8.590;2023-05-10T02:57:38;0.90;;;0.90;;
7493;SDS011;3788;49.902;8.590;2023-05-10T03:00:09;0.90;;;0.90;;
7493;SDS011;3788;49.902;8.590;2023-05-10T03:02:36;1.17;;;1.07;;
7493;SDS011;3788;49.902;8.590;2023-05-10T03:05:03;1.10;;;1.10;;
7493;SDS011;3788;49.902;8.590;2023-05-10T03:07:30;1.13;;;1.13;;
7493;SDS011;3788;49.902;8.590;2023-05-10T03:09:58;1.37;;;1.27;;
7493;SDS011;3788;49.902;8.590;2023-05-10T03:12:30;1.37;;;1.27;;
7493;SDS011;3788;49.902;8.590;2023-05-10T03:15:06;1.70;;;1.60;;
7493;SDS011;3788;49.902;8.590;2023-05-10T03:17:40;1.57;;;1.30;;
7493;SDS011;3788;49.902;8.590;2023-05-10T03:20:13;1.53;;;1.43;;
7493;SDS011;3788;49.902;8.590;2023-05-10T03:22:47;2.20;;;2.00;;
7493;SDS011;3788;49.902;8.590;2023-05-10T03:25:17;1.90;;;1.80;;
7493;SDS011;3788;49.902;8.590;2023-05-10T03:27:48;2.23;;;2.10;;
7493;SDS011;3788;49.902;8.590;2023-05-10T03:30:15;2.80;;;2.20;;
7493;SDS011;3788;49.902;8.590;2023-05-10T03:32:43;2.57;;;2.37;;
7493;SDS011;3788;49.902;8.590;2023-05-10T03:35:10;2.53;;;2.30;;
7493;SDS011;3788;49.902;8.590;2023-05-10T03:37:39;2.03;;;1.93;;
7493;SDS011;3788;49.902;8.590;2023-05-10T03:40:06;3.53;;;1.80;;
7493;SDS011;3788;49.902;8.590;2023-05-10T03:42:33;1.73;;;1.63;;
7493;SDS011;3788;49.902;8.590;2023-05-10T03:45:02;1.93;;;1.83;;
7493;SDS011;3788;49.902;8.590;2023-05-10T03:47:29;2.17;;;1.83;;
7493;SDS011;3788;49.902;8.590;2023-05-10T03:49:55;2.20;;;2.00;;
7493;SDS011;3788;49.902;8.590;2023-05-10T03:52:22;1.90;;;1.80;;
7493;SDS011;3788;49.902;8.590;2023-05-10T03:54:49;1.90;;;1.80;;
7493;SDS011;3788;49.902;8.590;2023-05-10T03:57:15;2.07;;;1.97;;
7493;SDS011;3788;49.902;8.590;2023-05-10T03:59:42;3.43;;;2.23;;
7493;SDS011;3788;49.902;8.590;2023-05-10T04:02:11;2.00;;;1.87;;
7493;SDS011;3788;49.902;8.590;2023-05-10T04:04:38;2.10;;;1.97;;
7493;SDS011;3788;49.902;8.590;2023-05-10T04:07:05;1.80;;;1.70;;
7493;SDS011;3788;49.902;8.590;2023-05-10T04:09:31;2.13;;;2.03;;
7493;SDS011;3788;49.902;8.590;2023-05-10T04:11:58;2.03;;;1.93;;
7493;SDS011;3788;49.902;8.590;2023-05-10T04:14:25;1.90;;;1.80;;
7493;SDS011;3788;49.902;8.590;2023-05-10T04:16:52;1.80;;;1.70;;
7493;SDS011;3788;49.902;8.590;2023-05-10T04:19:20;1.90;;;1.80;;
7493;SDS011;3788;49.902;8.590;2023-05-10T04:21:46;1.90;;;1.80;;
7493;SDS011;3788;49.902;8.590;2023-05-10T04:24:13;1.90;;;1.80;;
7493;SDS011;3788;49.902;8.590;2023-05-10T04:26:40;2.70;;;1.87;;
7493;SDS011;3788;49.902;8.590;2023-05-10T04:29:07;2.10;;;2.00;;
7493;SDS011;3788;49.902;8.590;2023-05-10T04:31:33;2.47;;;1.80;;
7493;SDS011;3788;49.902;8.590;2023-05-10T04:34:01;1.67;;;1.57;;
7493;SDS011;3788;49.902;8.590;2023-05-10T04:36:29;2.43;;;2.00;;
7493;SDS011;3788;49.902;8.590;2023-05-10T04:38:57;2.60;;;2.40;;
7493;SDS011;3788;49.902;8.590;2023-05-10T04:41:24;2.20;;;1.80;;
7493;SDS011;3788;49.902;8.590;2023-05-10T04:43:50;2.30;;;1.80;;
7493;SDS011;3788;49.902;8.590;2023-05-10T04:46:17;1.77;;;1.67;;
7493;SDS011;3788;49.902;8.590;2023-05-10T04:48:44;2.67;;;1.90;;
7493;SDS011;3788;49.902;8.590;2023-05-10T04:51:11;2.00;;;1.90;;
7493;SDS011;3788;49.902;8.590;2023-05-10T04:53:39;1.80;;;1.70;;
7493;SDS011;3788;49.902;8.590;2023-05-10T04:56:06;2.30;;;2.10;;
7493;SDS011;3788;49.902;8.590;2023-05-10T04:58:33;2.40;;;2.20;;
7493;SDS011;3788;49.902;8.590;2023-05-10T05:01:04;2.00;;;1.90;;
7493;SDS011;3788;49.902;8.590;2023-05-10T05:03:32;5.13;;;1.90;;
7493;SDS011;3788;49.902;8.590;2023-05-10T05:05:59;3.17;;;2.97;;
7493;SDS011;3788;49.902;8.590;2023-05-10T05:08:25;1.90;;;1.80;;
7493;SDS011;3788;49.902;8.590;2023-05-10T05:10:53;2.43;;;2.23;;
7493;SDS011;3788;49.902;8.590;2023-05-10T05:13:20;2.10;;;1.90;;
7493;SDS011;3788;49.902;8.590;2023-05-10T05:15:47;2.10;;;2.00;;
7493;SDS011;3788;49.902;8.590;2023-05-10T05:18:14;3.63;;;2.27;;
7493;SDS011;3788;49.902;8.590;2023-05-10T05:20:40;2.10;;;2.00;;
7493;SDS011;3788;49.902;8.590;2023-05-10T05:23:07;1.93;;;1.70;;
7493;SDS011;3788;49.902;8.590;2023-05-10T05:25:34;3.70;;;2.40;;
7493;SDS011;3788;49.902;8.590;2023-05-10T05:28:03;4.77;;;2.37;;
7493;SDS011;3788;49.902;8.590;2023-05-10T05:30:29;3.10;;;2.00;;
7493;SDS011;3788;49.902;8.590;2023-05-10T05:32:56;2.27;;;2.07;;
7493;SDS011;3788;49.902;8.590;2023-05-10T05:35:23;1.90;;;1.80;;
7493;SDS011;3788;49.902;8.590;2023-05-10T05:37:50;2.20;;;2.00;;
7493;SDS011;3788;49.902;8.590;2023-05-10T05:40:17;2.30;;;2.10;;
7493;SDS011;3788;49.902;8.590;2023-05-10T05:42:43;3.83;;;2.20;;
7493;SDS011;3788;49.902;8.590;2023-05-10T05:45:11;2.00;;;1.80;;
7493;SDS011;3788;49.902;8.590;2023-05-10T05:47:39;3.07;;;2.13;;
7493;SDS011;3788;49.902;8.590;2023-05-10T05:50:06;3.13;;;2.10;;
7493;SDS011;3788;49.902;8.590;2023-05-10T05:52:33;3.93;;;2.00;;
7493;SDS011;3788;49.902;8.590;2023-05-10T05:55:01;2.27;;;2.00;;
7493;SDS011;3788;49.902;8.590;2023-05-10T05:57:27;2.23;;;1.90;;
7493;SDS011;3788;49.902;8.590;2023-05-10T05:59:54;2.70;;;2.23;;
7493;SDS011;3788;49.902;8.590;2023-05-10T06:02:22;10.33;;;2.40;;
7493;SDS011;3788;49.902;8.590;2023-05-10T06:04:49;3.93;;;2.57;;
7493;SDS011;3788;49.902;8.590;2023-05-10T06:07:16;3.37;;;3.07;;
7493;SDS011;3788;49.902;8.590;2023-05-10T06:09:43;3.97;;;2.63;;
7493;SDS011;3788;49.902;8.590;2023-05-10T06:12:09;2.70;;;2.50;;
7493;SDS011;3788;49.902;8.590;2023-05-10T06:14:36;3.37;;;2.60;;
7493;SDS011;3788;49.902;8.590;2023-05-10T06:17:03;2.63;;;2.43;;
7493;SDS011;3788;49.902;8.590;2023-05-10T06:19:33;3.17;;;2.60;;
7493;SDS011;3788;49.902;8.590;2023-05-10T06:21:59;3.20;;;2.70;;
7493;SDS011;3788;49.902;8.590;2023-05-10T06:24:26;2.47;;;2.27;;
7493;SDS011;3788;49.902;8.590;2023-05-10T06:26:53;2.60;;;2.40;;
7493;SDS011;3788;49.902;8.590;2023-05-10T06:29:20;4.13;;;2.30;;
7493;SDS011;3788;49.902;8.590;2023-05-10T06:31:46;3.10;;;2.80;;
7493;SDS011;3788;49.902;8.590;2023-05-10T06:34:13;3.07;;;2.77;;
7493;SDS011;3788;49.902;8.590;2023-05-10T06:36:41;4.50;;;2.83;;
7493;SDS011;3788;49.902;8.590;2023-05-10T06:39:08;4.80;;;2.70;;
7493;SDS011;3788;49.902;8.590;2023-05-10T06:41:36;2.90;;;2.70;;
7493;SDS011;3788;49.902;8.590;2023-05-10T06:44:03;2.70;;;2.50;;
7493;SDS011;3788;49.902;8.590;2023-05-10T06:46:30;3.97;;;2.57;;
7493;SDS011;3788;49.902;8.590;2023-05-10T06:48:56;2.60;;;2.40;;
7493;SDS011;3788;49.902;8.590;2023-05-10T06:51:23;2.60;;;2.40;;
7493;SDS011;3788;49.902;8.590;2023-05-10T06:53:51;3.00;;;2.60;;
7493;SDS011;3788;49.902;8.590;2023-05-10T06:56:18;3.27;;;2.90;;
7493;SDS011;3788;49.902;8.590;2023-05-10T06:58:46;3.57;;;2.70;;
7493;SDS011;3788;49.902;8.590;2023-05-10T07:01:13;3.17;;;2.97;;
7493;SDS011;3788;49.902;8.590;2023-05-10T07:03:40;4.57;;;3.43;;
7493;SDS011;3788;49.902;8.590;2023-05-10T07:06:06;3.97;;;3.40;;
7493;SDS011;3788;49.902;8.590;2023-05-10T07:08:33;3.03;;;2.73;;
7493;SDS011;3788;49.902;8.590;2023-05-10T07:11:02;4.20;;;3.20;;
7493;SDS011;3788;49.902;8.590;2023-05-10T07:13:29;3.20;;;2.90;;
7493;SDS011;3788;49.902;8.590;2023-05-10T07:15:57;3.83;;;3.17;;
7493;SDS011;3788;49.902;8.590;2023-05-10T07:18:24;4.17;;;3.23;;
7493;SDS011;3788;49.902;8.590;2023-05-10T07:20:51;3.90;;;3.53;;
7493;SDS011;3788;49.902;8.590;2023-05-10T07:23:17;3.20;;;3.00;;
7493;SDS011;3788;49.902;8.590;2023-05-10T07:25:45;3.40;;;3.00;;
7493;SDS011;3788;49.902;8.590;2023-05-10T07:28:13;3.37;;;2.93;;
7493;SDS011;3788;49.902;8.590;2023-05-10T07:30:40;4.10;;;2.90;;
7493;SDS011;3788;49.902;8.590;2023-05-10T07:33:07;3.43;;;3.20;;
7493;SDS011;3788;49.902;8.590;2023-05-10T07:35:35;3.50;;;3.10;;
7493;SDS011;3788;49.902;8.590;2023-05-10T07:38:02;3.80;;;3.40;;
7493;SDS011;3788;49.902;8.590;2023-05-10T07:40:29;3.00;;;2.80;;
7493;SDS011;3788;49.902;8.590;2023-05-10T07:42:56;3.23;;;2.93;;
7493;SDS011;3788;49.902;8.590;2023-05-10T07:45:24;3.47;;;2.73;;
7493;SDS011;3788;49.902;8.590;2023-05-10T07:47:50;3.37;;;3.10;;
7493;SDS011;3788;49.902;8.590;2023-05-10T07:50:17;4.07;;;2.97;;
7493;SDS011;3788;49.902;8.590;2023-05-10T07:52:44;2.83;;;2.63;;
7493;SDS011;3788;49.902;8.590;2023-05-10T07:55:11;3.57;;;2.80;;
7493;SDS011;3788;49.902;8.590;2023-05-10T07:57:37;2.50;;;2.30;;
7493;SDS011;3788;49.902;8.590;2023-05-10T08:00:04;2.67;;;2.47;;
7493;SDS011;3788;49.902;8.590;2023-05-10T08:02:34;2.77;;;2.47;;
7493;SDS011;3788;49.902;8.590;2023-05-10T08:05:01;2.60;;;2.40;;
7493;SDS011;3788;49.902;8.590;2023-05-10T08:07:28;3.43;;;2.27;;
7493;SDS011;3788;49.902;8.590;2023-05-10T08:09:54;2.40;;;2.30;;
7493;SDS011;3788;49.902;8.590;2023-05-10T08:12:21;2.53;;;2.20;;
7493;SDS011;3788;49.902;8.590;2023-05-10T08:14:48;2.10;;;2.00;;
7493;SDS011;3788;49.902;8.590;2023-05-10T08:17:14;2.50;;;2.30;;
7493;SDS011;3788;49.902;8.590;2023-05-10T08:19:42;2.97;;;2.67;;
7493;SDS011;3788;49.902;8.590;2023-05-10T08:22:09;2.40;;;2.20;;
7493;SDS011;3788;49.902;8.590;2023-05-10T08:24:36;2.20;;;2.00;;
7493;SDS011;3788;49.902;8.590;2023-05-10T08:27:04;2.97;;;1.93;;
7493;SDS011;3788;49.902;8.590;2023-05-10T08:29:31;2.47;;;2.20;;
7493;SDS011;3788;49.902;8.590;2023-05-10T08:31:57;2.80;;;1.67;;
7493;SDS011;3788;49.902;8.590;2023-05-10T08:34:25;3.10;;;2.10;;
7493;SDS011;3788;49.902;8.590;2023-05-10T08:36:53;1.90;;;1.80;;
7493;SDS011;3788;49.902;8.590;2023-05-10T08:39:20;1.80;;;1.70;;
7493;SDS011;3788;49.902;8.590;2023-05-10T08:41:48;2.57;;;1.90;;
7493;SDS011;3788;49.902;8.590;2023-05-10T08:44:19;2.50;;;2.30;;
7493;SDS011;3788;49.902;8.590;2023-05-10T08:46:46;2.07;;;1.93;;
7493;SDS011;3788;49.902;8.590;2023-05-10T08:49:19;2.20;;;2.00;;
7493;SDS011;3788;49.902;8.590;2023-05-10T08:51:47;1.90;;;1.80;;
7493;SDS011;3788;49.902;8.590;2023-05-10T08:54:19;1.80;;;1.70;;
7493;SDS011;3788;49.902;8.590;2023-05-10T08:56:46;2.70;;;2.50;;
7493;SDS011;3788;49.902;8.590;2023-05-10T08:59:13;1.80;;;1.70;;
7493;SDS011;3788;49.902;8.590;2023-05-10T09:01:40;1.90;;;1.80;;
7493;SDS011;3788;49.902;8.590;2023-05-10T09:04:10;1.67;;;1.57;;
7493;SDS011;3788;49.902;8.590;2023-05-10T09:06:37;1.50;;;1.40;;
7493;SDS011;3788;49.902;8.590;2023-05-10T09:09:04;1.63;;;1.20;;
7493;SDS011;3788;49.902;8.590;2023-05-10T09:11:33;1.47;;;1.37;;
7493;SDS011;3788;49.902;8.590;2023-05-10T09:14:00;1.77;;;1.57;;
7493;SDS011;3788;49.902;8.590;2023-05-10T09:16:27;1.40;;;1.30;;
7493;SDS011;3788;49.902;8.590;2023-05-10T09:18:54;2.10;;;1.87;;
7493;SDS011;3788;49.902;8.590;2023-05-10T09:21:20;1.30;;;1.20;;
7493;SDS011;3788;49.902;8.590;2023-05-10T09:23:47;1.13;;;1.03;;
7493;SDS011;3788;49.902;8.590;2023-05-10T09:26:15;1.07;;;1.00;;
7493;SDS011;3788;49.902;8.590;2023-05-10T09:28:53;1.10;;;1.00;;
7493;SDS011;3788;49.902;8.590;2023-05-10T09:31:21;1.87;;;1.00;;
7493;SDS011;3788;49.902;8.590;2023-05-10T09:33:49;0.80;;;0.80;;
7493;SDS011;3788;49.902;8.590;2023-05-10T09:36:17;1.63;;;0.77;;
7493;SDS011;3788;49.902;8.590;2023-05-10T09:38:47;2.43;;;1.13;;
7493;SDS011;3788;49.902;8.590;2023-05-10T09:41:17;0.83;;;0.80;;
7493;SDS011;3788;49.902;8.590;2023-05-10T09:43:45;1.00;;;0.60;;
7493;SDS011;3788;49.902;8.590;2023-05-10T09:46:13;0.70;;;0.70;;
7493;SDS011;3788;49.902;8.590;2023-05-10T09:48:41;0.73;;;0.70;;
7493;SDS011;3788;49.902;8.590;2023-05-10T09:51:09;0.70;;;0.70;;
7493;SDS011;3788;49.902;8.590;2023-05-10T09:53:36;0.70;;;0.70;;
7493;SDS011;3788;49.902;8.590;2023-05-10T09:56:03;2.63;;;1.00;;
7493;SDS011;3788;49.902;8.590;2023-05-10T09:58:30;0.70;;;0.70;;
7493;SDS011;3788;49.902;8.590;2023-05-10T10:00:56;0.73;;;0.73;;
7493;SDS011;3788;49.902;8.590;2023-05-10T10:03:25;0.73;;;0.73;;
7493;SDS011;3788;49.902;8.590;2023-05-10T10:05:51;1.67;;;0.80;;
7493;SDS011;3788;49.902;8.590;2023-05-10T10:08:21;1.33;;;0.80;;
7493;SDS011;3788;49.902;8.590;2023-05-10T10:10:48;1.33;;;0.80;;
7493;SDS011;3788;49.902;8.590;2023-05-10T10:13:16;1.50;;;1.00;;
7493;SDS011;3788;49.902;8.590;2023-05-10T10:15:43;0.80;;;0.80;;
7493;SDS011;3788;49.902;8.590;2023-05-10T10:18:12;0.90;;;0.90;;
7493;SDS011;3788;49.902;8.590;2023-05-10T10:20:41;0.83;;;0.83;;
7493;SDS011;3788;49.902;8.590;2023-05-10T10:23:08;1.63;;;1.03;;
7493;SDS011;3788;49.902;8.590;2023-05-10T10:25:35;0.87;;;0.87;;
7493;SDS011;3788;49.902;8.590;2023-05-10T10:28:10;1.30;;;0.93;;
7493;SDS011;3788;49.902;8.590;2023-05-10T10:30:47;0.93;;;0.83;;
7493;SDS011;3788;49.902;8.590;2023-05-10T10:33:27;0.70;;;0.70;;
7493;SDS011;3788;49.902;8.590;2023-05-10T10:36:15;1.20;;;1.03;;
7493;SDS011;3788;49.902;8.590;2023-05-10T10:38:54;0.90;;;0.90;;
7493;SDS011;3788;49.902;8.590;2023-05-10T10:41:27;0.70;;;0.70;;
7493;SDS011;3788;49.902;8.590;2023-05-10T10:46:58;0.70;;;0.70;;
7493;SDS011;3788;49.902;8.590;2023-05-10T10:49:26;2.30;;;0.80;;
7493;SDS011;3788;49.902;8.590;2023-05-10T10:54:49;0.70;;;0.70;;
7493;SDS011;3788;49.902;8.590;2023-05-10T10:57:17;1.33;;;0.83;;
7493;SDS011;3788;49.902;8.590;2023-05-10T10:59:46;1.90;;;0.67;;
7493;SDS011;3788;49.902;8.590;2023-05-10T11:02:32;1.27;;;1.17;;
7493;SDS011;3788;49.902;8.590;2023-05-10T11:05:00;0.87;;;0.80;;
7493;SDS011;3788;49.902;8.590;2023-05-10T11:07:53;2.13;;;0.90;;
7493;SDS011;3788;49.902;8.590;2023-05-10T11:10:20;0.60;;;0.60;;
7493;SDS011;3788;49.902;8.590;2023-05-10T11:12:51;0.87;;;0.87;;
7493;SDS011;3788;49.902;8.590;2023-05-10T11:15:19;2.20;;;1.17;;
7493;SDS011;3788;49.902;8.590;2023-05-10T11:17:47;1.00;;;0.90;;
7493;SDS011;3788;49.902;8.590;2023-05-10T11:20:16;1.03;;;1.03;;
7493;SDS011;3788;49.902;8.590;2023-05-10T11:22:51;1.63;;;0.80;;
7493;SDS011;3788;49.902;8.590;2023-05-10T11:25:19;1.37;;;1.00;;
7493;SDS011;3788;49.902;8.590;2023-05-10T11:27:47;2.50;;;1.10;;
7493;SDS011;3788;49.902;8.590;2023-05-10T11:30:14;1.93;;;1.00;;
7493;SDS011;3788;49.902;8.590;2023-05-10T11:32:41;1.10;;;1.00;;
7493;SDS011;3788;49.902;8.590;2023-05-10T11:35:08;0.97;;;0.87;;
7493;SDS011;3788;49.902;8.590;2023-05-10T11:37:36;0.83;;;0.73;;
7493;SDS011;3788;49.902;8.590;2023-05-10T11:40:06;1.40;;;1.10;;
7493;SDS011;3788;49.902;8.590;2023-05-10T11:42:37;0.70;;;0.70;;
7493;SDS011;3788;49.902;8.590;2023-05-10T11:45:04;0.80;;;0.80;;
7493;SDS011;3788;49.902;8.590;2023-05-10T11:47:31;2.40;;;0.70;;
7493;SDS011;3788;49.902;8.590;2023-05-10T11:50:00;0.47;;;0.47;;
7493;SDS011;3788;49.902;8.590;2023-05-10T11:52:27;0.70;;;0.70;;
7493;SDS011;3788;49.902;8.590;2023-05-10T11:54:54;2.40;;;0.80;;
7493;SDS011;3788;49.902;8.590;2023-05-10T11:57:25;0.80;;;0.80;;
7493;SDS011;3788;49.902;8.590;2023-05-10T11:59:54;0.70;;;0.63;;
7493;SDS011;3788;49.902;8.590;2023-05-10T12:02:22;0.70;;;0.70;;
7493;SDS011;3788;49.902;8.590;2023-05-10T12:04:49;0.80;;;0.80;;
7493;SDS011;3788;49.902;8.590;2023-05-10T12:07:16;0.60;;;0.60;;
7493;SDS011;3788;49.902;8.590;2023-05-10T12:09:43;1.10;;;0.77;;
7493;SDS011;3788;49.902;8.590;2023-05-10T12:12:09;0.60;;;0.60;;
7493;SDS011;3788;49.902;8.590;2023-05-10T12:14:36;0.53;;;0.50;;
7493;SDS011;3788;49.902;8.590;2023-05-10T12:17:04;1.70;;;0.90;;
7493;SDS011;3788;49.902;8.590;2023-05-10T12:19:36;1.23;;;0.60;;
7493;SDS011;3788;49.902;8.590;2023-05-10T12:22:04;0.50;;;0.50;;
7493;SDS011;3788;49.902;8.590;2023-05-10T12:24:33;1.53;;;0.70;;
7493;SDS011;3788;49.902;8.590;2023-05-10T12:27:03;0.83;;;0.60;;
7493;SDS011;3788;49.902;8.590;2023-05-10T12:29:32;2.03;;;0.80;;
7493;SDS011;3788;49.902;8.590;2023-05-10T12:31:59;1.23;;;0.60;;
7493;SDS011;3788;49.902;8.590;2023-05-10T12:34:30;0.70;;;0.60;;
7493;SDS011;3788;49.902;8.590;2023-05-10T12:36:57;0.67;;;0.60;;
7493;SDS011;3788;49.902;8.590;2023-05-10T12:39:24;0.67;;;0.63;;
7493;SDS011;3788;49.902;8.590;2023-05-10T12:41:51;1.03;;;0.80;;
7493;SDS011;3788;49.902;8.590;2023-05-10T12:44:18;0.50;;;0.50;;
7493;SDS011;3788;49.902;8.590;2023-05-10T12:46:45;1.87;;;0.50;;
7493;SDS011;3788;49.902;8.590;2023-05-10T12:49:11;2.10;;;0.93;;
7493;SDS011;3788;49.902;8.590;2023-05-10T12:51:39;0.60;;;0.60;;
7493;SDS011;3788;49.902;8.590;2023-05-10T12:54:06;0.87;;;0.70;;
7493;SDS011;3788;49.902;8.590;2023-05-10T12:56:33;0.70;;;0.70;;
7493;SDS011;3788;49.902;8.590;2023-05-10T12:58:59;0.70;;;0.70;;
7493;SDS011;3788;49.902;8.590;2023-05-10T13:01:26;2.10;;;0.70;;
7493;SDS011;3788;49.902;8.590;2023-05-10T13:03:53;0.70;;;0.70;;
7493;SDS011;3788;49.902;8.590;2023-05-10T13:06:20;2.60;;;1.23;;
7493;SDS011;3788;49.902;8.590;2023-05-10T13:08:48;0.63;;;0.60;;
7493;SDS011;3788;49.902;8.590;2023-05-10T13:11:14;0.90;;;0.70;;
7493;SDS011;3788;49.902;8.590;2023-05-10T13:13:41;1.03;;;0.60;;
7493;SDS011;3788;49.902;8.590;2023-05-10T13:16:08;0.97;;;0.80;;
7493;SDS011;3788;49.902;8.590;2023-05-10T13:18:35;1.17;;;0.83;;
7493;SDS011;3788;49.902;8.590;2023-05-10T13:21:01;0.60;;;0.60;;
7493;SDS011;3788;49.902;8.590;2023-05-10T13:23:29;2.60;;;0.77;;
7493;SDS011;3788;49.902;8.590;2023-05-10T13:25:57;1.73;;;0.70;;
7493;SDS011;3788;49.902;8.590;2023-05-10T13:28:23;1.00;;;0.87;;
7493;SDS011;3788;49.902;8.590;2023-05-10T13:30:51;1.37;;;0.60;;
7493;SDS011;3788;49.902;8.590;2023-05-10T13:33:18;1.60;;;0.80;;
7493;SDS011;3788;49.902;8.590;2023-05-10T13:35:44;0.80;;;0.80;;
7493;SDS011;3788;49.902;8.590;2023-05-10T13:38:11;2.73;;;0.73;;
7493;SDS011;3788;49.902;8.590;2023-05-10T13:40:38;0.80;;;0.80;;
7493;SDS011;3788;49.902;8.590;2023-05-10T13:43:06;0.67;;;0.67;;
7493;SDS011;3788;49.902;8.590;2023-05-10T13:45:33;0.70;;;0.70;;
7493;SDS011;3788;49.902;8.590;2023-05-10T13:47:59;0.80;;;0.80;;
7493;SDS011;3788;49.902;8.590;2023-05-10T13:50:27;0.83;;;0.80;;
7493;SDS011;3788;49.902;8.590;2023-05-10T13:52:54;1.00;;;0.90;;
7493;SDS011;3788;49.902;8.590;2023-05-10T13:55:21;0.87;;;0.77;;
7493;SDS011;3788;49.902;8.590;2023-05-10T13:57:48;0.73;;;0.73;;
7493;SDS011;3788;49.902;8.590;2023-05-10T14:00:16;0.70;;;0.70;;
7493;SDS011;3788;49.902;8.590;2023-05-10T14:02:43;0.67;;;0.67;;
7493;SDS011;3788;49.902;8.590;2023-05-10T14:05:10;1.03;;;0.93;;
7493;SDS011;3788;49.902;8.590;2023-05-10T14:07:37;2.57;;;0.90;;
7493;SDS011;3788;49.902;8.590;2023-05-10T14:10:04;1.20;;;0.87;;
7493;SDS011;3788;49.902;8.590;2023-05-10T14:12:31;0.70;;;0.70;;
7493;SDS011;3788;49.902;8.590;2023-05-10T14:14:57;1.00;;;0.90;;
7493;SDS011;3788;49.902;8.590;2023-05-10T14:17:25;2.07;;;1.00;;
7493;SDS011;3788;49.902;8.590;2023-05-10T14:19:53;2.17;;;0.90;;
7493;SDS011;3788;49.902;8.590;2023-05-10T14:22:19;1.87;;;1.00;;
7493;SDS011;3788;49.902;8.590;2023-05-10T14:24:47;2.03;;;0.97;;
7493;SDS011;3788;49.902;8.590;2023-05-10T14:27:14;0.83;;;0.70;;
7493;SDS011;3788;49.902;8.590;2023-05-10T14:29:41;2.13;;;0.93;;
7493;SDS011;3788;49.902;8.590;2023-05-10T14:32:07;2.17;;;0.90;;
7493;SDS011;3788;49.902;8.590;2023-05-10T14:34:35;2.30;;;1.00;;
7493;SDS011;3788;49.902;8.590;2023-05-10T14:37:02;1.47;;;0.70;;
7493;SDS011;3788;49.902;8.590;2023-05-10T14:39:29;1.40;;;0.93;;
7493;SDS011;3788;49.902;8.590;2023-05-10T14:41:56;1.37;;;0.90;;
7493;SDS011;3788;49.902;8.590;2023-05-10T14:44:23;1.37;;;0.90;;
7493;SDS011;3788;49.902;8.590;2023-05-10T14:46:50;1.97;;;1.13;;
7493;SDS011;3788;49.902;8.590;2023-05-10T14:49:18;1.00;;;1.00;;
7493;SDS011;3788;49.902;8.590;2023-05-10T14:51:49;3.10;;;1.00;;
7493;SDS011;3788;49.902;8.590;2023-05-10T14:54:15;0.90;;;0.90;;
7493;SDS011;3788;49.902;8.590;2023-05-10T14:56:42;1.50;;;1.00;;
7493;SDS011;3788;49.902;8.590;2023-05-10T14:59:10;1.13;;;0.83;;
7493;SDS011;3788;49.902;8.590;2023-05-10T15:01:36;1.10;;;1.00;;
7493;SDS011;3788;49.902;8.590;2023-05-10T15:04:03;1.40;;;0.70;;
7493;SDS011;3788;49.902;8.590;2023-05-10T15:06:30;1.37;;;0.80;;
7493;SDS011;3788;49.902;8.590;2023-05-10T15:08:58;1.40;;;0.80;;
7493;SDS011;3788;49.902;8.590;2023-05-10T15:11:25;2.23;;;1.10;;
7493;SDS011;3788;49.902;8.590;2023-05-10T15:13:52;1.30;;;1.20;;
7493;SDS011;3788;49.902;8.590;2023-05-10T15:16:19;1.67;;;1.10;;
7493;SDS011;3788;49.902;8.590;2023-05-10T15:18:46;2.37;;;1.10;;
7493;SDS011;3788;49.902;8.590;2023-05-10T15:21:13;1.50;;;0.80;;
7493;SDS011;3788;49.902;8.590;2023-05-10T15:23:40;0.90;;;0.83;;
7493;SDS011;3788;49.902;8.590;2023-05-10T15:26:08;1.90;;;0.90;;
7493;SDS011;3788;49.902;8.590;2023-05-10T15:28:35;0.80;;;0.80;;
7493;SDS011;3788;49.902;8.590;2023-05-10T15:31:01;2.07;;;1.00;;